createdAt,value
2018-10-18T00:04:23.137Z,83.46
2018-10-18T00:09:26.740Z,84.31
2018-10-18T00:14:30.457Z,84.49
2018-10-18T00:19:33.899Z,84.25
2018-10-18T00:24:37.395Z,84.34
2018-10-18T00:29:41.383Z,84.70
2018-10-18T00:34:58.306Z,85.00
2018-10-18T00:40:01.620Z,84.57
2018-10-18T00:45:05.828Z,84.99
2018-10-18T00:50:10.706Z,84.56
2018-10-18T00:55:13.847Z,84.43
2018-10-18T01:00:17.553Z,84.94
2018-10-18T01:05:20.881Z,84.44
2018-10-18T01:10:24.247Z,84.95
2018-10-18T01:15:27.545Z,84.95
2018-10-18T01:20:30.909Z,85.05
2018-10-18T01:25:34.217Z,84.51
2018-10-18T01:30:37.558Z,84.39
2018-10-18T01:35:40.894Z,84.47
2018-10-18T01:40:44.355Z,84.77
2018-10-18T01:45:47.870Z,85.45
2018-10-18T01:50:51.215Z,85.30
2018-10-18T01:55:54.705Z,85.99
2018-10-18T02:00:58.077Z,86.15
2018-10-18T02:06:01.606Z,86.26
2018-10-18T02:11:05.854Z,85.81
2018-10-18T02:16:09.309Z,85.28
2018-10-18T02:21:12.884Z,85.42
2018-10-18T02:26:16.690Z,85.39
2018-10-18T02:31:20.161Z,85.54
2018-10-18T02:36:23.855Z,85.96
2018-10-18T02:41:27.072Z,85.06
2018-10-18T02:46:30.628Z,85.66
2018-10-18T02:51:33.882Z,85.92
2018-10-18T02:56:39.354Z,87.07
2018-10-18T03:01:43.824Z,86.37
2018-10-18T03:06:48.273Z,87.06
2018-10-18T03:11:52.679Z,86.19
2018-10-18T03:16:56.735Z,86.91
2018-10-18T03:22:01.177Z,87.93
2018-10-18T03:27:05.561Z,88.45
2018-10-18T03:32:09.893Z,88.07
2018-10-18T03:37:14.019Z,88.62
2018-10-18T03:42:18.291Z,88.09
2018-10-18T03:47:22.744Z,88.61
2018-10-18T03:52:26.961Z,88.76
2018-10-18T03:57:31.074Z,88.49
2018-10-18T04:02:35.446Z,88.33
2018-10-18T04:07:39.964Z,88.35
2018-10-18T04:12:44.162Z,89.09
2018-10-18T04:17:48.628Z,89.80
2018-10-18T04:22:52.968Z,90.33
2018-10-18T04:27:57.624Z,90.71
2018-10-18T04:33:02.946Z,91.15
2018-10-18T04:38:07.535Z,91.15
2018-10-18T04:43:12.495Z,91.78
2018-10-18T04:48:17.235Z,91.11
2018-10-18T04:53:21.664Z,90.83
2018-10-18T04:58:26.012Z,90.99
2018-10-18T05:03:31.376Z,90.66
2018-10-18T05:08:36.804Z,90.84
2018-10-18T05:13:40.985Z,90.09
2018-10-18T05:18:45.774Z,89.71
2018-10-18T05:24:08.912Z,90.34
2018-10-18T05:29:13.856Z,90.64
2018-10-18T05:34:18.126Z,91.76
2018-10-18T05:39:23.320Z,90.82
2018-10-18T05:44:27.641Z,90.40
2018-10-18T05:49:32.372Z,90.59
2018-10-18T05:54:36.705Z,90.49
2018-10-18T05:59:41.951Z,90.91
2018-10-18T06:04:46.496Z,91.20
2018-10-18T06:09:51.232Z,90.81
2018-10-18T06:14:55.952Z,91.03
2018-10-18T06:20:00.776Z,90.31
2018-10-18T06:25:06.077Z,90.05
2018-10-18T06:30:12.767Z,90.34
2018-10-18T06:35:17.361Z,90.73
2018-10-18T06:40:21.774Z,90.35
2018-10-18T06:45:26.327Z,90.20
2018-10-18T06:50:31.113Z,90.28
2018-10-18T06:55:35.731Z,90.26
2018-10-18T07:00:40.383Z,89.79
2018-10-18T07:05:45.023Z,89.94
2018-10-18T07:10:49.907Z,88.77
2018-10-18T07:15:54.584Z,87.65
2018-10-18T07:20:59.976Z,86.89
2018-10-18T07:26:04.926Z,87.14
2018-10-18T07:31:09.530Z,86.99
2018-10-18T07:36:14.402Z,87.46
2018-10-18T07:41:19.244Z,88.22
2018-10-18T07:46:23.576Z,88.45
2018-10-18T07:51:28.264Z,88.82
2018-10-18T07:56:32.749Z,88.93
2018-10-18T08:01:37.150Z,89.67
2018-10-18T08:06:41.692Z,89.00
2018-10-18T08:11:51.002Z,89.90
2018-10-18T08:16:55.798Z,89.91
2018-10-18T08:22:00.261Z,91.06
2018-10-18T08:27:04.773Z,91.67
2018-10-18T08:32:09.140Z,92.56
2018-10-18T08:37:13.708Z,93.45
2018-10-18T08:42:18.164Z,93.89
2018-10-18T08:47:22.749Z,94.36
2018-10-18T08:52:27.204Z,94.39
2018-10-18T08:57:31.606Z,95.09
2018-10-18T09:02:43.533Z,94.93
2018-10-18T09:07:49.029Z,95.20
2018-10-18T09:12:53.851Z,95.12
2018-10-18T09:18:00.862Z,95.34
2018-10-18T09:23:05.764Z,95.21
2018-10-18T09:28:10.107Z,95.51
2018-10-18T09:33:19.975Z,95.67
2018-10-18T09:38:24.384Z,95.42
2018-10-18T09:43:29.113Z,95.71
2018-10-18T09:48:33.708Z,95.06
2018-10-18T09:53:48.601Z,93.75
2018-10-18T09:58:53.775Z,93.91
2018-10-18T10:04:03.871Z,94.15
2018-10-18T10:09:10.181Z,93.80
2018-10-18T10:14:25.534Z,93.30
2018-10-18T10:19:30.897Z,93.60
2018-10-18T10:24:45.000Z,93.53
2018-10-18T10:29:49.847Z,92.81
2018-10-18T10:34:55.751Z,92.54
2018-10-18T10:40:00.337Z,92.94
2018-10-18T10:45:11.774Z,92.97
2018-10-18T10:50:17.039Z,92.90
2018-10-18T10:55:21.652Z,92.52
2018-10-18T11:01:29.225Z,93.08
2018-10-18T11:06:34.086Z,93.01
2018-10-18T11:11:38.686Z,92.43
2018-10-18T11:16:43.572Z,93.30
2018-10-18T11:21:49.211Z,93.21
2018-10-18T11:26:53.674Z,93.83
2018-10-18T11:31:58.331Z,94.92
2018-10-18T11:37:03.186Z,95.16
2018-10-18T11:42:08.410Z,95.37
2018-10-18T11:47:14.150Z,95.99
2018-10-18T11:52:19.188Z,97.06
2018-10-18T11:57:24.492Z,97.18
2018-10-18T12:02:28.997Z,97.08
2018-10-18T12:07:35.233Z,96.80
2018-10-18T12:12:50.248Z,96.28
2018-10-18T12:17:55.567Z,96.01
2018-10-18T12:23:02.466Z,95.20
2018-10-18T12:28:08.149Z,94.72
2018-10-18T12:33:12.955Z,93.63
2018-10-18T12:38:18.772Z,93.06
2018-10-18T12:43:29.655Z,92.66
2018-10-18T12:48:34.305Z,92.65
2018-10-18T12:53:44.499Z,92.43
2018-10-18T12:58:51.239Z,92.05
2018-10-18T13:03:56.108Z,92.24
2018-10-18T13:09:01.822Z,92.06
2018-10-18T13:14:06.497Z,92.44
2018-10-18T13:19:11.233Z,92.98
2018-10-18T13:24:15.984Z,94.33
2018-10-18T13:29:20.978Z,93.60
2018-10-18T13:34:25.526Z,94.50
2018-10-18T13:39:31.038Z,93.88
2018-10-18T13:44:35.802Z,94.67
2018-10-18T13:49:40.414Z,93.75
2018-10-18T13:54:46.141Z,93.80
2018-10-18T14:00:01.896Z,94.30
2018-10-18T14:05:06.398Z,94.20
2018-10-18T14:10:11.685Z,94.51
2018-10-18T14:15:20.999Z,94.78
2018-10-18T14:20:25.564Z,94.75
2018-10-18T14:25:30.154Z,94.67
2018-10-18T14:30:34.769Z,95.22
2018-10-18T14:35:39.858Z,95.38
2018-10-18T14:40:44.109Z,95.16
2018-10-18T14:45:48.776Z,95.52
2018-10-18T14:50:53.578Z,94.77
2018-10-18T14:55:58.045Z,95.02
2018-10-18T15:01:03.076Z,95.13
2018-10-18T15:06:07.700Z,95.68
2018-10-18T15:11:12.500Z,95.42
2018-10-18T15:16:16.858Z,95.03
2018-10-18T15:21:21.827Z,95.37
2018-10-18T15:26:26.553Z,95.24
2018-10-18T15:31:31.296Z,95.11
2018-10-18T15:36:36.010Z,95.77
2018-10-18T15:41:43.322Z,95.41
2018-10-18T15:46:47.931Z,95.27
2018-10-18T15:51:52.470Z,95.73
2018-10-18T15:56:56.886Z,95.26
2018-10-18T16:02:01.578Z,95.38
2018-10-18T16:07:06.083Z,95.89
2018-10-18T16:12:10.526Z,95.73
2018-10-18T16:17:15.090Z,96.11
2018-10-18T16:22:33.189Z,96.23
2018-10-18T16:27:37.777Z,95.87
2018-10-18T16:32:47.572Z,95.94
2018-10-18T16:37:52.827Z,96.27
2018-10-18T16:42:57.831Z,96.36
2018-10-18T16:48:03.673Z,96.63
2018-10-18T16:53:21.860Z,96.64
2018-10-18T16:58:36.276Z,96.86
2018-10-18T17:03:50.303Z,96.52
2018-10-18T17:08:55.037Z,96.70
2018-10-18T17:14:08.849Z,96.22
2018-10-18T17:19:14.760Z,96.87
2018-10-18T17:24:21.834Z,96.58
2018-10-18T17:29:29.116Z,96.58
2018-10-18T17:34:34.861Z,96.54
2018-10-18T17:39:39.811Z,96.77
2018-10-18T17:44:44.811Z,97.03
2018-10-18T17:49:51.624Z,96.81
2018-10-18T17:54:56.398Z,96.46
2018-10-18T18:00:01.233Z,96.00
2018-10-18T18:05:05.652Z,96.57
2018-10-18T18:10:14.748Z,96.56
2018-10-18T18:15:19.416Z,96.09
2018-10-18T18:20:24.063Z,96.21
2018-10-18T18:25:28.510Z,96.32
2018-10-18T18:30:34.026Z,95.76
2018-10-18T18:35:39.290Z,95.69
2018-10-18T18:40:45.426Z,95.26
2018-10-18T18:45:51.182Z,95.84
2018-10-18T18:50:57.690Z,95.66
2018-10-18T18:56:03.448Z,96.00
2018-10-18T19:01:08.394Z,96.15
2018-10-18T19:06:15.093Z,96.36
2018-10-18T19:11:24.715Z,96.67
2018-10-18T19:16:30.193Z,96.42
2018-10-18T19:21:35.326Z,96.78
2018-10-18T19:26:40.541Z,97.69
2018-10-18T19:31:51.485Z,97.64
2018-10-18T19:36:56.259Z,97.86
2018-10-18T19:42:02.279Z,97.85
2018-10-18T19:47:06.735Z,97.72
2018-10-18T19:52:30.136Z,98.47
2018-10-18T19:57:34.878Z,98.10
2018-10-18T20:02:39.927Z,98.36
2018-10-18T20:07:45.338Z,98.47
2018-10-18T20:12:49.813Z,98.67
2018-10-18T20:17:55.327Z,97.86
2018-10-18T20:23:00.528Z,97.75
2018-10-18T20:28:05.645Z,97.96
2018-10-18T20:33:10.291Z,97.72
2018-10-18T20:38:15.411Z,98.19
2018-10-18T20:43:20.260Z,97.03
2018-10-18T20:48:25.858Z,97.04
2018-10-18T20:53:30.532Z,96.55
2018-10-18T20:58:35.233Z,96.54
2018-10-18T21:03:39.643Z,96.29
2018-10-18T21:08:44.350Z,95.99
2018-10-18T21:13:48.877Z,96.05
2018-10-18T21:18:53.396Z,95.91
2018-10-18T21:23:57.847Z,95.84
2018-10-18T21:29:02.488Z,95.94
2018-10-18T21:34:12.138Z,95.93
2018-10-18T21:39:26.269Z,96.41
2018-10-18T21:44:33.226Z,95.91
2018-10-18T21:49:37.725Z,95.92
2018-10-18T21:54:42.199Z,95.99
2018-10-18T21:59:46.876Z,96.14
2018-10-18T22:04:51.636Z,96.34
2018-10-18T22:09:56.335Z,96.07
2018-10-18T22:15:06.810Z,96.23
2018-10-18T22:20:11.451Z,95.83
2018-10-18T22:25:21.250Z,95.69
2018-10-18T22:30:25.883Z,95.91
2018-10-18T22:35:35.971Z,95.60
2018-10-18T22:40:41.329Z,95.92
2018-10-18T22:45:49.913Z,95.44
2018-10-18T22:50:54.549Z,95.11
2018-10-18T22:55:59.519Z,95.68
2018-10-18T23:01:13.443Z,94.89
2018-10-18T23:06:17.931Z,95.45
2018-10-18T23:11:22.873Z,94.88
2018-10-18T23:16:27.464Z,95.09
2018-10-18T23:21:32.104Z,94.71
2018-10-18T23:26:36.820Z,95.20
2018-10-18T23:32:00.033Z,94.75
2018-10-18T23:37:04.672Z,95.10
2018-10-18T23:42:09.256Z,94.65
2018-10-18T23:47:13.573Z,94.41
2018-10-18T23:52:18.061Z,94.66
2018-10-18T23:57:22.727Z,95.31
